Albuquerque, NM (87110)

8:47 AM MDT on July 31, 2015 (GMT -0600)
Del Arroyo | | Change Station
CLOSE
Current Station
Personal Weather Station
Location: Albuquerque, NM
Elevation: 5335 ft
Nearby Weather Stations

Elev 5335 ft 35.12 °N, 106.56 °W | Updated 2 minutes ago

Mostly Cloudy
Mostly Cloudy
69.5 °F
Feels Like 69.5 °F
N
0.0
Wind Variable Wind from WSW
Gusts 0.0 mph

Today
High -- | Low -- °F
--% Chance of Precip.
Yesterday
High -- | Low -- °F
Precip. -- in
6:14 AM 8:10 PM
Full, 100% visible
Pressure 30.15 in
Visibility 10.0 miles
Clouds Few 4000 ft
Scattered Clouds 8500 ft
Mostly Cloudy 17000 ft
Dew Point 63 °F
Humidity 79%
Rainfall 0.02 in
Snow Depth Not available.
UV 1 out of 12
Pollen .50 out of 12
Air Quality Not available.
Flu Activity Not available.
METAR KABQ 311352Z 12005KT 10SM FEW040 SCT085 BKN170 21/16 A3037 RMK AO2 SLP208 T02060161

More Conditions Fewer Conditions

Pressure 30.15 in
Visibility 10.0 miles
Clouds Few 4000 ft
Scattered Clouds 8500 ft
Mostly Cloudy 17000 ft
Dew Point 63 °F
Humidity 79%
Rainfall 0.02 in
Snow Depth Not available.
UV 1 out of 12
Pollen .50 out of 12
Air Quality Not available.
Flu Activity Not available.
METAR KABQ 311352Z 12005KT 10SM FEW040 SCT085 BKN170 21/16 A3037 RMK AO2 SLP208 T02060161

More Conditions Fewer Conditions

10-Day Weather Forecast

×

Almanac

Astronomy

Jul. 31, 2015 Rise Set
Actual Time
Civil Twilight
Nautical Twilight
Astronomical Twilight
Moon
Length of Visible Light
Length of Day
Tomorrow will be .
, % of the Moon is Illuminated

Today's Extremes

State Highs State Lows

Community

WunderPhotos

Upload Photos

1,842,666 photos uploaded!

WunderBlogs® & News

Nearby

Air Quality

  Air Quality AQ Index Pollutant
Not available.

Snow Depth

Station Depth Elevation

Earthquake Activity

City Distance Mag. Time & Date
Minimum magnitude displayed is 2.5.

Coastal Water Temperatures

Place Temperature

Stations

Nearby Weather Stations

Station Location Temp. Windchill Dew Point Humidity Wind Precip. Elev Updated Type